Time;durP1;ratioP1;P1;durP2;ratioP2;P2;SDS_P1;SDS_P2;PMS_P1;PMS_P2;Temp;Humidity;BMP_temperature;BMP_pressure;BME280_temperature;BME280_humidity;BME280_pressure;Samples;Min_cycle;Max_cycle;Signal;HPM_P1;HPM_P2
2022/06/11 00:00:11;;;;;;;7.60;2.65;;;;;;;16.91;79.35;102135.56;6236981;23;20008;-61
2022/06/11 00:02:37;;;;;;;15.57;3.08;;;;;;;16.87;80.16;102137.50;6237203;23;20007;-63
2022/06/11 00:05:02;;;;;;;17.08;3.50;;;;;;;16.84;80.00;102132.28;6237560;23;20337;-62
2022/06/11 00:07:28;;;;;;;16.45;3.20;;;;;;;16.75;80.50;102133.53;6238829;23;20342;-62
2022/06/11 00:09:53;;;;;;;7.43;2.55;;;;;;;16.74;80.54;102134.44;6238267;23;20425;-62
2022/06/11 00:12:20;;;;;;;15.07;3.42;;;;;;;16.65;81.63;102137.47;6237478;23;20574;-62
2022/06/11 00:14:46;;;;;;;12.05;3.25;;;;;;;16.76;81.74;102134.38;6238188;23;20011;-61
2022/06/11 00:17:14;;;;;;;14.55;3.15;;;;;;;16.76;81.61;102134.38;6210853;23;20026;-62
2022/06/11 00:19:41;;;;;;;18.83;3.42;;;;;;;16.80;81.41;102130.69;6239075;23;20004;-63
2022/06/11 00:22:07;;;;;;;11.23;3.03;;;;;;;16.84;81.62;102134.94;6237497;23;20006;-61
2022/06/11 00:24:33;;;;;;;16.38;2.97;;;;;;;16.82;81.40;102127.97;6238751;23;20393;-60
2022/06/11 00:27:00;;;;;;;11.63;3.28;;;;;;;16.86;81.16;102129.56;6237793;23;20000;-62
2022/06/11 00:29:29;;;;;;;14.32;3.13;;;;;;;16.83;81.22;102135.00;6237758;23;19996;-61
2022/06/11 00:31:55;;;;;;;11.82;2.80;;;;;;;16.82;81.15;102130.63;6237385;23;20455;-62
2022/06/11 00:34:21;;;;;;;10.45;2.35;;;;;;;16.78;80.88;102133.41;6238322;23;20007;-61
2022/06/11 00:36:46;;;;;;;8.60;2.50;;;;;;;16.78;81.06;102122.75;6237584;23;20004;-61
2022/06/11 00:39:13;;;;;;;9.32;3.20;;;;;;;16.74;81.20;102126.44;6238548;23;20421;-62
2022/06/11 00:41:41;;;;;;;9.00;2.85;;;;;;;16.74;81.30;102126.44;6238402;23;20011;-62
2022/06/11 00:44:07;;;;;;;9.18;2.80;;;;;;;16.73;81.60;102130.03;6234940;23;20495;-62
2022/06/11 00:46:55;;;;;;;8.73;3.13;;;;;;;16.77;81.21;102128.16;6238339;23;20004;-62
2022/06/11 00:49:40;;;;;;;8.77;2.90;;;;;;;16.79;81.11;102126.28;6234715;23;20000;-61
2022/06/11 00:52:14;;;;;;;12.95;2.80;;;;;;;16.77;81.35;102130.81;6210959;23;20004;-62
2022/06/11 00:54:44;;;;;;;10.75;2.92;;;;;;;16.77;80.96;102122.81;6211357;23;20011;-61
2022/06/11 00:57:11;;;;;;;8.75;3.13;;;;;;;16.75;81.13;102130.88;6211957;23;21058;-61
2022/06/11 00:59:40;;;;;;;10.98;2.78;;;;;;;16.73;81.38;102126.50;6236927;23;20138;-61
2022/06/11 01:02:06;;;;;;;9.70;2.65;;;;;;;16.77;81.60;102120.16;6211319;23;19999;-61
2022/06/11 01:04:34;;;;;;;9.23;2.40;;;;;;;16.70;81.83;102124.00;6238061;23;20318;-64
2022/06/11 01:07:23;;;;;;;9.23;2.33;;;;;;;16.75;81.96;102124.66;6239093;22;20043;-62
2022/06/11 01:09:56;;;;;;;6.32;2.33;;;;;;;16.79;81.96;102118.28;6215727;22;20018;-61
2022/06/11 01:12:34;;;;;;;5.80;2.25;;;;;;;16.77;81.77;102125.47;6269180;22;20363;-62
2022/06/11 01:15:10;;;;;;;7.22;2.38;;;;;;;16.83;81.63;102127.91;6239845;22;20000;-62
2022/06/11 01:18:02;;;;;;;10.57;2.30;;;;;;;16.73;81.51;102124.72;6242385;22;20030;-62
2022/06/11 01:20:39;;;;;;;13.68;2.63;;;;;;;16.68;82.13;102122.25;6269034;22;20008;-62
2022/06/11 01:23:42;;;;;;;6.32;2.42;;;;;;;16.67;82.09;102130.28;6243419;22;19995;-62
2022/06/11 01:26:31;;;;;;;6.97;2.15;;;;;;;16.72;81.61;102133.66;6269793;22;20007;-62
2022/06/11 01:29:21;;;;;;;7.95;2.72;;;;;;;16.70;81.33;102130.16;6271062;22;20014;-61
2022/06/11 01:31:53;;;;;;;12.98;2.85;;;;;;;16.71;80.58;102129.25;6270110;22;20424;-64
2022/06/11 01:34:41;;;;;;;7.85;2.30;;;;;;;16.72;80.18;102131.00;6243342;22;19999;-61
2022/06/11 01:37:09;;;;;;;9.93;2.60;;;;;;;16.82;79.03;102131.47;6242199;22;20008;-62
2022/06/11 01:39:39;;;;;;;14.38;2.45;;;;;;;16.80;78.60;102133.34;6271245;22;20006;-62
2022/06/11 01:42:13;;;;;;;11.68;2.63;;;;;;;16.76;78.47;102139.69;6243691;22;20052;-62
2022/06/11 01:44:41;;;;;;;8.15;1.98;;;;;;;16.86;77.74;102135.75;6242763;22;20015;-62
2022/06/11 01:47:08;;;;;;;7.82;2.30;;;;;;;16.86;77.45;102141.06;6270822;22;20010;-62
2022/06/11 01:49:53;;;;;;;11.57;2.63;;;;;;;16.74;77.71;102138.91;6269815;22;20008;-61
2022/06/11 01:52:24;;;;;;;16.67;2.13;;;;;;;16.90;76.83;102137.38;6270425;22;20416;-60
2022/06/11 01:55:03;;;;;;;11.38;2.65;;;;;;;16.77;76.86;102136.97;6269264;22;20018;-62
2022/06/11 01:58:00;;;;;;;10.63;2.47;;;;;;;16.79;76.17;102140.47;6270604;22;20431;-62
2022/06/11 02:00:29;;;;;;;16.52;2.85;;;;;;;16.73;76.15;102143.34;6269744;22;20443;-60
2022/06/11 02:03:02;;;;;;;9.77;2.50;;;;;;;16.79;75.75;102139.56;6243214;22;20039;-61
2022/06/11 02:05:51;;;;;;;14.20;2.83;;;;;;;16.64;76.25;102144.59;6271573;22;20012;-62
2022/06/11 02:08:42;;;;;;;10.68;2.53;;;;;;;16.73;75.81;102146.00;6269019;22;20016;-62
2022/06/11 02:11:22;;;;;;;13.52;2.90;;;;;;;16.67;76.08;102152.44;6242322;22;20006;-61
2022/06/11 02:13:59;;;;;;;11.25;2.38;;;;;;;16.52;76.51;102150.38;6269559;22;20004;-62
2022/06/11 02:16:29;;;;;;;18.38;2.85;;;;;;;16.57;76.52;102156.41;6243067;22;20336;-62
2022/06/11 02:18:55;;;;;;;8.15;2.50;;;;;;;16.53;76.78;102152.13;6243115;22;20031;-63
2022/06/11 02:21:24;;;;;;;11.40;2.78;;;;;;;16.48;77.02;102152.28;6270802;22;20004;-60
2022/06/11 02:24:03;;;;;;;11.07;2.50;;;;;;;16.42;77.96;102147.22;6268867;22;20331;-63
2022/06/11 02:26:32;;;;;;;13.38;2.80;;;;;;;16.27;78.69;102146.88;6242874;22;20073;-62
2022/06/11 02:28:59;;;;;;;11.13;2.35;;;;;;;16.36;78.58;102148.31;6216636;22;19995;-62
2022/06/11 02:31:32;;;;;;;16.80;3.08;;;;;;;16.39;78.24;102144.66;6242473;22;20003;-62
2022/06/11 02:34:02;;;;;;;12.85;2.92;;;;;;;16.41;77.60;102150.81;6242701;22;20034;-62
2022/06/11 02:36:30;;;;;;;13.25;3.10;;;;;;;16.40;77.37;102155.25;6270504;22;20004;-63
2022/06/11 02:38:59;;;;;;;19.02;3.35;;;;;;;16.34;77.48;102152.81;6268597;22;19991;-62
2022/06/11 02:41:28;;;;;;;13.10;3.05;;;;;;;16.40;76.72;102157.91;6268950;22;20007;-61
2022/06/11 02:43:54;;;;;;;18.73;3.13;;;;;;;16.36;76.65;102158.94;6267212;22;20089;-61
2022/06/11 02:49:04;;;;;;;15.80;3.05;;;;;;;16.36;75.65;102153.63;6268586;22;20019;-62
2022/06/11 02:51:30;;;;;;;14.85;3.38;;;;;;;16.32;75.93;102157.34;6270125;22;20000;-61
2022/06/11 02:53:56;;;;;;;14.50;3.25;;;;;;;16.25;76.09;102155.81;6270774;22;20011;-60
2022/06/11 02:56:22;;;;;;;16.58;3.15;;;;;;;16.29;75.67;102160.09;6268851;22;20313;-62
2022/06/11 02:58:48;;;;;;;16.88;3.30;;;;;;;16.20;76.01;102155.13;6269696;22;20075;-62
2022/06/11 03:01:13;;;;;;;19.23;3.17;;;;;;;16.20;76.53;102165.75;6268865;22;20455;-61
2022/06/11 03:03:38;;;;;;;18.45;3.55;;;;;;;16.08;76.28;102165.28;6268440;22;20423;-62
2022/06/11 03:06:05;;;;;;;20.98;3.00;;;;;;;16.08;76.06;102177.69;6269346;22;20018;-61
2022/06/11 03:08:31;;;;;;;18.13;3.20;;;;;;;16.03;76.15;102175.22;6269146;22;20415;-60
2022/06/11 03:10:57;;;;;;;18.17;3.33;;;;;;;16.04;76.37;102175.16;6270728;22;20028;-62
2022/06/11 03:13:24;;;;;;;20.35;3.53;;;;;;;16.04;76.54;102179.59;6267591;22;20467;-62
2022/06/11 03:15:49;;;;;;;25.55;3.70;;;;;;;16.08;76.03;102175.03;6269743;22;20033;-62
2022/06/11 03:18:15;;;;;;;25.17;4.28;;;;;;;16.04;76.15;102175.16;6268338;22;20515;-60
2022/06/11 03:20:40;;;;;;;14.50;3.70;;;;;;;16.06;76.01;102187.50;6269581;22;20088;-65
2022/06/11 03:23:06;;;;;;;21.35;3.78;;;;;;;16.11;75.74;102181.13;6268715;22;20004;-61
2022/06/11 03:25:32;;;;;;;23.42;3.40;;;;;;;16.13;75.43;102183.72;6268348;22;20004;-64
2022/06/11 03:27:57;;;;;;;17.65;3.58;;;;;;;16.09;75.70;102177.66;6241383;22;20030;-62
2022/06/11 03:30:23;;;;;;;24.15;3.72;;;;;;;16.09;75.64;102188.28;6268486;22;20092;-61
2022/06/11 03:32:48;;;;;;;20.75;3.83;;;;;;;16.11;75.49;102190.88;6269493;22;20000;-62
2022/06/11 03:35:15;;;;;;;21.85;3.72;;;;;;;16.09;75.55;102196.25;6268433;22;20003;-62
2022/06/11 03:37:40;;;;;;;21.75;4.00;;;;;;;16.06;75.56;102198.16;6242046;22;20007;-64
2022/06/11 03:40:07;;;;;;;17.30;3.53;;;;;;;16.05;75.65;102194.63;6267232;22;20003;-61
2022/06/11 03:42:32;;;;;;;19.15;4.35;;;;;;;16.08;75.67;102202.50;6267016;22;20007;-62
2022/06/11 03:44:58;;;;;;;25.80;3.60;;;;;;;16.09;75.55;102200.69;6240703;22;20004;-61
2022/06/11 03:47:23;;;;;;;20.20;4.25;;;;;;;16.15;75.64;102205.81;6240396;22;20451;-60
2022/06/11 03:49:49;;;;;;;21.08;4.80;;;;;;;16.10;75.67;102211.28;6266662;22;20007;-61
2022/06/11 03:52:14;;;;;;;19.02;3.83;;;;;;;16.14;75.68;102210.25;6268939;22;19999;-61
2022/06/11 03:54:40;;;;;;;23.63;4.05;;;;;;;16.10;76.05;102223.72;6269669;22;20382;-62
2022/06/11 03:57:06;;;;;;;19.05;3.95;;;;;;;16.20;75.70;102217.16;6268710;22;20413;-62
2022/06/11 03:59:32;;;;;;;21.92;4.47;;;;;;;16.12;76.27;102219.19;6268198;22;20004;-65
2022/06/11 04:01:57;;;;;;;23.88;4.25;;;;;;;16.17;76.02;102220.78;6269366;22;20151;-63
2022/06/11 04:04:23;;;;;;;30.52;4.70;;;;;;;16.20;76.12;102217.16;6268873;22;20087;-60
2022/06/11 04:06:52;;;;;;;19.48;3.70;;;;;;;16.27;75.93;102213.34;6269333;22;20475;-62
2022/06/11 04:09:29;;;;;;;19.15;4.18;;;;;;;16.30;75.85;102220.34;6269557;22;20014;-61
2022/06/11 04:11:54;;;;;;;29.05;4.88;;;;;;;16.33;76.06;102214.91;6268533;22;20770;-62
2022/06/11 04:14:19;;;;;;;26.88;4.32;;;;;;;16.32;76.24;102223.81;6268738;22;19999;-61
2022/06/11 04:16:51;;;;;;;22.23;3.67;;;;;;;16.44;75.97;102224.28;6268747;22;20011;-62
2022/06/11 04:19:29;;;;;;;23.23;3.97;;;;;;;16.37;76.58;102235.16;6268663;22;19999;-62
2022/06/11 04:21:56;;;;;;;21.95;4.10;;;;;;;16.38;76.41;102231.56;6242343;22;19995;-66
2022/06/11 04:24:23;;;;;;;25.67;4.65;;;;;;;16.47;76.33;102235.69;6268995;22;20946;-64
2022/06/11 04:26:52;;;;;;;23.88;4.70;;;;;;;16.48;76.33;102241.88;6268496;22;20050;-63
2022/06/11 04:29:19;;;;;;;25.20;4.00;;;;;;;16.50;76.36;102246.19;6268111;22;20014;-62
2022/06/11 04:31:47;;;;;;;25.55;4.65;;;;;;;16.50;76.65;102246.19;6269579;22;20000;-65
2022/06/11 04:34:13;;;;;;;29.73;4.72;;;;;;;16.53;76.93;102245.25;6268694;22;20014;-62
2022/06/11 04:36:40;;;;;;;28.92;4.00;;;;;;;16.55;76.96;102244.25;6269689;22;20057;-62
2022/06/11 04:39:07;;;;;;;25.58;5.07;;;;;;;16.63;76.90;102254.63;6269092;22;20003;-61
2022/06/11 04:41:32;;;;;;;30.77;4.95;;;;;;;16.70;76.89;102238.44;6269263;22;20004;-60
2022/06/11 04:43:57;;;;;;;28.55;5.35;;;;;;;16.70;76.97;102257.91;6269400;22;20008;-63
2022/06/11 04:46:23;;;;;;;27.38;5.35;;;;;;;16.64;77.46;102253.69;6268216;22;20380;-62
2022/06/11 04:48:49;;;;;;;26.20;5.13;;;;;;;16.73;77.45;102249.81;6268373;22;20027;-61
2022/06/11 04:51:15;;;;;;;26.63;5.55;;;;;;;16.74;77.61;102261.34;6268768;22;20004;-63
2022/06/11 04:53:40;;;;;;;34.08;5.38;;;;;;;16.75;77.78;102253.28;6268357;22;20008;-61
2022/06/11 04:56:07;;;;;;;29.27;5.28;;;;;;;16.91;77.14;102250.91;6267876;22;19999;-61
2022/06/11 04:58:32;;;;;;;36.78;5.65;;;;;;;16.90;77.47;102254.50;6267418;22;20026;-61
2022/06/11 05:00:58;;;;;;;37.38;5.55;;;;;;;16.85;77.54;102260.91;6266678;22;20301;-63
2022/06/11 05:03:23;;;;;;;35.35;5.95;;;;;;;16.91;77.68;102258.91;6267294;22;20004;-61
2022/06/11 05:05:49;;;;;;;28.88;5.07;;;;;;;16.99;77.66;102263.06;6268286;22;20422;-61
2022/06/11 05:08:15;;;;;;;25.52;5.28;;;;;;;17.06;77.33;102264.56;6267101;22;20057;-62
2022/06/11 05:10:41;;;;;;;31.45;5.07;;;;;;;17.07;77.66;102262.81;6268118;22;20008;-63
2022/06/11 05:13:08;;;;;;;38.25;4.88;;;;;;;17.11;77.71;102267.06;6267549;22;20004;-64
2022/06/11 05:15:34;;;;;;;33.67;5.13;;;;;;;17.18;77.23;102268.56;6269001;22;20012;-63
2022/06/11 05:18:00;;;;;;;29.92;5.15;;;;;;;17.28;77.46;102266.44;6268745;22;20454;-63
2022/06/11 05:20:26;;;;;;;37.58;5.30;;;;;;;17.30;77.07;102268.09;6268783;22;20004;-64
2022/06/11 05:22:51;;;;;;;32.60;5.55;;;;;;;17.23;77.31;102268.38;6268504;22;20018;-64
2022/06/11 05:25:18;;;;;;;32.40;5.07;;;;;;;17.32;77.35;102272.47;6268858;22;20118;-63
2022/06/11 05:27:46;;;;;;;24.60;4.22;;;;;;;17.29;77.64;102271.69;6240940;22;20000;-63
2022/06/11 05:30:25;;;;;;;32.60;5.75;;;;;;;17.32;77.61;102272.47;6268259;22;19999;-64
2022/06/11 05:32:50;;;;;;;32.33;6.00;;;;;;;17.22;77.88;102279.97;6269301;22;20091;-64
2022/06/11 05:35:20;;;;;;;30.15;5.85;;;;;;;17.26;78.31;102286.91;6269048;22;20027;-63
2022/06/11 05:37:47;;;;;;;42.17;5.90;;;;;;;17.40;77.36;102278.38;6268571;22;20023;-62
2022/06/11 05:40:16;;;;;;;28.88;5.20;;;;;;;17.43;77.52;102287.09;6268559;22;20079;-61
2022/06/11 05:42:41;;;;;;;33.40;5.40;;;;;;;17.45;77.09;102284.38;6268102;22;20378;-62
2022/06/11 05:45:07;;;;;;;33.40;5.43;;;;;;;17.51;76.96;102275.28;6267966;22;20091;-61
2022/06/11 05:47:33;;;;;;;31.90;5.50;;;;;;;17.53;77.21;102276.09;6268603;22;20008;-63
2022/06/11 05:50:00;;;;;;;31.17;5.85;;;;;;;17.52;77.15;102285.03;6269385;22;20098;-63
2022/06/11 05:52:30;;;;;;;38.38;6.30;;;;;;;17.57;77.09;102288.34;6267637;22;20000;-60
2022/06/11 05:54:56;;;;;;;28.10;5.75;;;;;;;17.58;77.30;102297.22;6240376;22;20004;-61
2022/06/11 05:57:24;;;;;;;30.40;5.22;;;;;;;17.74;76.25;102284.13;6265582;22;20061;-65
2022/06/11 05:59:53;;;;;;;41.90;6.10;;;;;;;17.84;75.59;102282.81;6267328;22;20008;-61
2022/06/11 06:02:21;;;;;;;29.55;5.50;;;;;;;17.90;75.81;102289.69;6268060;22;20078;-61
2022/06/11 06:04:47;;;;;;;33.53;5.97;;;;;;;17.93;75.72;102287.78;6267395;22;20422;-63
2022/06/11 06:07:12;;;;;;;33.50;5.13;;;;;;;18.06;74.28;102292.56;6268118;22;20059;-62
2022/06/11 06:09:38;;;;;;;28.52;5.13;;;;;;;18.04;74.32;102294.44;6268342;22;20392;-64
2022/06/11 06:12:03;;;;;;;31.45;5.97;;;;;;;18.06;73.34;102295.22;6269879;22;20107;-62
2022/06/11 06:14:29;;;;;;;31.52;5.53;;;;;;;18.17;72.84;102295.69;6269104;22;19995;-62
2022/06/11 06:16:54;;;;;;;25.73;4.70;;;;;;;18.24;71.25;102292.75;6268411;22;20010;-62
2022/06/11 06:19:20;;;;;;;27.33;4.88;;;;;;;18.26;69.77;102298.88;6267862;22;20076;-61
2022/06/11 06:21:45;;;;;;;29.50;5.20;;;;;;;18.23;68.66;102299.00;6269537;22;20432;-59
2022/06/11 06:24:11;;;;;;;23.35;4.22;;;;;;;18.34;69.24;102299.44;6268292;22;20053;-58
2022/06/11 06:26:37;;;;;;;24.52;4.32;;;;;;;18.30;68.52;102305.81;6268684;22;20058;-58
2022/06/11 06:29:03;;;;;;;27.35;4.63;;;;;;;18.45;67.98;102312.28;6213919;22;20008;-58
2022/06/11 06:31:28;;;;;;;29.73;5.05;;;;;;;18.56;66.96;102303.81;6269586;22;19999;-59
2022/06/11 06:33:58;;;;;;;28.88;4.63;;;;;;;18.49;66.68;102305.00;6268816;22;20010;-59
2022/06/11 06:36:23;;;;;;;24.63;4.90;;;;;;;18.55;67.67;102307.41;6269093;22;20011;-56
2022/06/11 06:38:50;;;;;;;23.58;4.57;;;;;;;18.74;67.03;102299.44;6270287;22;20008;-61
2022/06/11 06:41:15;;;;;;;22.95;4.68;;;;;;;18.81;65.85;102308.03;6268666;22;20046;-61
2022/06/11 06:43:41;;;;;;;21.08;4.03;;;;;;;18.67;63.50;102317.53;6269405;22;20035;-60
2022/06/11 06:46:07;;;;;;;17.80;4.15;;;;;;;18.79;62.55;102318.78;6268322;22;20004;-60
2022/06/11 06:48:32;;;;;;;21.05;4.50;;;;;;;18.65;63.24;102319.41;6270248;22;20010;-60
2022/06/11 06:50:58;;;;;;;19.67;4.20;;;;;;;18.73;62.57;102323.53;6270298;22;20010;-62
2022/06/11 06:53:25;;;;;;;20.92;4.30;;;;;;;18.80;62.38;102325.00;6268922;22;20006;-61
2022/06/11 06:55:51;;;;;;;19.50;4.03;;;;;;;18.93;61.81;102320.81;6270276;22;20690;-64
2022/06/11 06:58:16;;;;;;;26.42;4.50;;;;;;;18.83;60.28;102324.84;6267344;22;20003;-60
2022/06/11 07:00:46;;;;;;;24.40;4.38;;;;;;;18.99;61.04;102317.00;6270184;22;20000;-62
2022/06/11 07:03:12;;;;;;;21.13;4.10;;;;;;;19.11;61.39;102322.75;6268318;22;20000;-61
2022/06/11 07:05:38;;;;;;;17.33;3.25;;;;;;;19.09;58.92;102325.50;6268454;22;20030;-61
2022/06/11 07:08:03;;;;;;;18.73;3.83;;;;;;;19.17;59.44;102327.78;6269163;22;20441;-61
2022/06/11 07:10:29;;;;;;;16.83;3.83;;;;;;;19.09;59.41;102321.94;6268517;22;20000;-61
2022/06/11 07:12:55;;;;;;;18.63;3.58;;;;;;;19.06;58.41;102328.28;6268753;22;20478;-62
2022/06/11 07:15:20;;;;;;;16.08;3.47;;;;;;;19.11;57.92;102331.63;6268234;22;20590;-61
2022/06/11 07:17:54;;;;;;;16.23;3.30;;;;;;;19.22;58.37;102324.91;6269378;22;20022;-62
2022/06/11 07:20:22;;;;;;;15.63;4.03;;;;;;;19.34;58.95;102337.69;6268524;22;20375;-61
2022/06/11 07:22:55;;;;;;;23.00;4.03;;;;;;;19.36;58.84;102338.50;6268984;22;20000;-62
2022/06/11 07:25:20;;;;;;;15.27;2.95;;;;;;;19.37;58.82;102336.69;6241334;22;20312;-63
2022/06/11 07:27:50;;;;;;;18.15;4.07;;;;;;;19.46;58.54;102328.22;6267820;22;20003;-62
2022/06/11 07:30:21;;;;;;;19.08;3.97;;;;;;;19.40;57.05;102342.75;6267837;22;19999;-62
2022/06/11 07:32:53;;;;;;;22.83;3.78;;;;;;;19.49;57.71;102327.19;6269200;22;20006;-62
2022/06/11 07:35:19;;;;;;;19.33;3.97;;;;;;;19.60;57.51;102337.38;6267943;22;20075;-61
2022/06/11 07:37:45;;;;;;;15.15;3.67;;;;;;;19.55;56.49;102332.25;6269466;22;20003;-63
2022/06/11 07:40:11;;;;;;;18.35;3.67;;;;;;;19.64;57.03;102333.63;6241122;22;20095;-62
2022/06/11 07:42:37;;;;;;;15.30;3.20;;;;;;;19.61;56.72;102339.97;6267786;22;20019;-60
2022/06/11 07:45:03;;;;;;;18.38;3.42;;;;;;;19.61;55.53;102331.97;6268333;22;20031;-62
2022/06/11 07:50:13;;;;;;;18.23;3.05;;;;;;;19.73;55.88;102333.16;6268999;22;20007;-61
2022/06/11 07:52:39;;;;;;;20.55;3.67;;;;;;;19.64;55.41;102326.47;6267883;22;20069;-63
2022/06/11 07:55:05;;;;;;;24.65;3.58;;;;;;;19.78;54.92;102327.59;6241641;22;20029;-62
2022/06/11 07:57:31;;;;;;;16.27;3.47;;;;;;;19.88;53.36;102333.34;6267278;22;20004;-60
2022/06/11 07:59:56;;;;;;;19.83;3.47;;;;;;;19.90;53.35;102347.53;6269413;22;20025;-61
2022/06/11 08:02:21;;;;;;;16.00;3.22;;;;;;;19.86;52.86;102333.41;6268959;22;20442;-60
2022/06/11 08:04:47;;;;;;;14.30;2.90;;;;;;;19.97;53.17;102343.59;6268924;22;20008;-60
2022/06/11 08:07:12;;;;;;;14.15;3.53;;;;;;;19.96;51.73;102339.19;6268789;22;20012;-61
2022/06/11 08:09:37;;;;;;;14.40;3.20;;;;;;;20.06;51.69;102350.31;6268837;22;20011;-62
2022/06/11 08:12:03;;;;;;;17.90;4.03;;;;;;;20.14;50.78;102350.78;6267431;22;20007;-63
2022/06/11 08:14:28;;;;;;;19.15;3.42;;;;;;;20.11;50.63;102350.97;6269802;22;20079;-61
2022/06/11 08:16:54;;;;;;;16.63;3.45;;;;;;;20.20;52.23;102354.97;6268421;22;20000;-62
2022/06/11 08:19:19;;;;;;;16.70;2.92;;;;;;;20.27;51.09;102351.03;6268636;22;20071;-62
2022/06/11 08:21:44;;;;;;;13.18;3.08;;;;;;;20.28;49.92;102351.88;6269014;22;20007;-63
2022/06/11 08:24:10;;;;;;;17.27;3.15;;;;;;;20.42;50.34;102354.75;6268866;22;20085;-61
2022/06/11 08:26:37;;;;;;;18.92;3.28;;;;;;;20.35;49.39;102349.78;6269245;22;20481;-61
2022/06/11 08:29:02;;;;;;;19.65;3.70;;;;;;;20.41;50.45;102355.66;6267551;22;20004;-62
2022/06/11 08:31:27;;;;;;;12.32;3.08;;;;;;;20.44;49.47;102355.50;6269861;22;19999;-62
2022/06/11 08:33:53;;;;;;;17.05;3.40;;;;;;;20.43;49.84;102345.75;6268655;22;20003;-64
2022/06/11 08:36:18;;;;;;;15.55;3.05;;;;;;;20.45;51.48;102349.22;6269116;22;20054;-62
2022/06/11 08:38:44;;;;;;;13.80;3.38;;;;;;;20.62;49.78;102354.63;6269207;22;20003;-65
2022/06/11 08:41:15;;;;;;;16.38;3.80;;;;;;;20.56;50.17;102356.69;6268474;22;20006;-63
2022/06/11 08:44:11;;;;;;;16.73;3.22;;;;;;;20.67;49.85;102349.88;6240099;22;20419;-62
2022/06/11 08:46:39;;;;;;;12.43;3.05;;;;;;;20.77;50.24;102343.09;6243244;22;20015;-61
2022/06/11 08:49:05;;;;;;;16.52;3.33;;;;;;;20.90;50.75;102348.69;6268419;22;20004;-64
2022/06/11 08:51:42;;;;;;;18.15;3.42;;;;;;;21.10;50.22;102348.56;6268469;22;20420;-63
2022/06/11 08:54:12;;;;;;;16.80;3.50;;;;;;;21.17;49.95;102344.59;6215633;22;20000;-62
2022/06/11 08:56:43;;;;;;;12.77;3.15;;;;;;;21.18;49.48;102343.63;6266861;22;20000;-65
2022/06/11 08:59:36;;;;;;;18.40;3.65;;;;;;;21.20;49.90;102342.59;6268259;22;19995;-63
2022/06/11 09:02:13;;;;;;;13.48;3.35;;;;;;;20.94;49.74;102339.53;6267965;22;20386;-64
2022/06/11 09:04:48;;;;;;;14.23;3.58;;;;;;;21.09;49.88;102345.00;6266817;22;20004;-61
2022/06/11 09:07:34;;;;;;;17.25;3.17;;;;;;;21.26;50.37;102335.16;6238830;22;20510;-61
2022/06/11 09:10:22;;;;;;;14.77;3.28;;;;;;;21.11;49.80;102335.06;6266538;22;20031;-63
2022/06/11 09:12:56;;;;;;;13.32;3.25;;;;;;;21.23;51.01;102338.00;6264625;22;20077;-63
2022/06/11 09:15:40;;;;;;;18.48;4.20;;;;;;;21.34;49.84;102336.47;6266905;22;20466;-62
2022/06/11 09:18:24;;;;;;;16.45;3.30;;;;;;;21.57;49.57;102331.63;6266971;22;20023;-62
2022/06/11 09:21:12;;;;;;;19.38;3.40;;;;;;;21.75;49.29;102328.84;6240249;22;20324;-62
2022/06/11 09:23:53;;;;;;;23.70;4.38;;;;;;;21.67;49.17;102337.31;6239927;22;20003;-62
2022/06/11 09:26:21;;;;;;;12.30;3.28;;;;;;;21.56;49.57;102331.72;6265002;22;20003;-62
2022/06/11 09:28:52;;;;;;;17.98;3.50;;;;;;;21.38;49.41;102337.16;6239498;22;19999;-63
2022/06/11 09:31:30;;;;;;;18.08;3.55;;;;;;;21.33;50.03;102325.81;6266508;22;20007;-63
2022/06/11 09:34:10;;;;;;;15.20;3.88;;;;;;;21.45;49.73;102322.47;6266924;22;20527;-63
2022/06/11 09:36:42;;;;;;;15.82;2.95;;;;;;;21.63;49.42;102334.88;6266079;22;20003;-62
2022/06/11 09:39:31;;;;;;;16.92;3.80;;;;;;;21.58;47.68;102335.16;6239676;22;20008;-63
2022/06/11 09:42:00;;;;;;;16.58;3.78;;;;;;;21.69;47.86;102338.09;6237931;22;20079;-64
2022/06/11 09:44:36;;;;;;;17.15;4.00;;;;;;;21.68;49.51;102344.41;6237778;22;20011;-63
2022/06/11 09:47:10;;;;;;;19.88;3.95;;;;;;;21.84;49.42;102348.91;6266234;22;20482;-64
2022/06/11 09:50:05;;;;;;;13.98;3.47;;;;;;;22.22;48.63;102343.09;6268669;22;20313;-64
2022/06/11 09:52:39;;;;;;;12.27;3.30;;;;;;;22.37;48.01;102345.81;6240457;22;20383;-63
2022/06/11 09:55:28;;;;;;;21.33;4.22;;;;;;;22.37;48.18;102340.47;6241500;22;20376;-64
2022/06/11 09:58:24;;;;;;;16.60;3.72;;;;;;;22.32;48.93;102342.53;6239397;22;20050;-65
2022/06/11 10:00:56;;;;;;;14.23;3.58;;;;;;;22.47;48.90;102341.63;6268333;22;20015;-65
2022/06/11 10:03:42;;;;;;;11.52;3.10;;;;;;;22.69;48.04;102347.50;6240750;22;20010;-64
2022/06/11 10:06:14;;;;;;;16.73;3.58;;;;;;;22.91;47.89;102352.41;6191703;22;1105531;-64
2022/06/11 10:08:47;;;;;;;16.00;3.90;;;;;;;23.10;47.36;102348.56;6216110;22;20094;-62
2022/06/11 10:11:21;;;;;;;18.95;4.20;;;;;;;23.23;48.29;102349.50;6269855;22;20007;-62
2022/06/11 10:14:28;;;;;;;16.98;3.95;;;;;;;23.48;47.25;102358.69;6267210;22;20018;-63
2022/06/11 10:16:56;;;;;;;20.95;3.90;;;;;;;23.30;47.50;102358.00;6270211;22;20052;-63
2022/06/11 10:19:55;;;;;;;14.07;3.70;;;;;;;23.21;47.89;102356.78;6267730;22;20091;-63
2022/06/11 10:22:32;;;;;;;18.02;4.65;;;;;;;23.25;47.71;102357.47;6269574;22;21075;-64
2022/06/11 10:25:04;;;;;;;17.92;3.58;;;;;;;23.25;48.35;102362.84;6241629;22;20042;-64
2022/06/11 10:27:32;;;;;;;23.73;4.47;;;;;;;23.13;47.82;102364.50;6242933;22;20000;-64
2022/06/11 10:30:03;;;;;;;21.48;4.50;;;;;;;23.17;48.21;102363.34;6241384;22;20065;-64
2022/06/11 10:32:36;;;;;;;19.48;3.90;;;;;;;23.26;48.19;102361.03;6243076;22;20012;-64
2022/06/11 10:35:23;;;;;;;16.85;4.00;;;;;;;23.17;49.14;102378.59;6268111;22;20000;-65
2022/06/11 10:37:59;;;;;;;18.27;4.25;;;;;;;23.34;49.04;102366.75;6269839;22;20074;-63
2022/06/11 10:40:31;;;;;;;21.65;4.95;;;;;;;23.71;48.59;102361.69;6215649;22;20483;-63
2022/06/11 10:43:05;;;;;;;19.52;3.92;;;;;;;23.87;47.82;102365.19;6269913;22;20000;-64
2022/06/11 10:45:31;;;;;;;18.88;4.30;;;;;;;24.12;48.05;102364.41;6269049;22;20027;-63
2022/06/11 10:47:58;;;;;;;17.83;3.85;;;;;;;24.16;47.29;102357.88;6269856;22;20023;-67
2022/06/11 10:50:34;;;;;;;17.95;4.32;;;;;;;24.20;44.37;102359.38;6243525;22;20008;-64
2022/06/11 10:53:05;;;;;;;14.85;3.70;;;;;;;24.48;43.40;102359.31;6268310;22;20000;-65
2022/06/11 10:55:46;;;;;;;18.73;4.43;;;;;;;24.57;44.11;102360.50;6243046;22;20081;-64
2022/06/11 10:58:43;;;;;;;21.98;4.13;;;;;;;24.55;45.48;102365.13;6267583;22;20343;-63
2022/06/11 11:01:17;;;;;;;17.67;3.70;;;;;;;24.30;45.75;102356.06;6242439;22;20328;-65
2022/06/11 11:04:06;;;;;;;20.55;4.05;;;;;;;24.38;46.07;102359.06;6242047;22;20044;-62
2022/06/11 11:06:34;;;;;;;20.02;3.90;;;;;;;24.66;45.10;102362.56;6269177;22;20019;-64
2022/06/11 11:09:07;;;;;;;18.27;4.70;;;;;;;24.64;44.54;102367.19;6269573;22;19999;-62
2022/06/11 11:11:40;;;;;;;20.17;3.90;;;;;;;23.95;45.79;102363.72;6241075;22;20485;-63
2022/06/11 11:14:31;;;;;;;13.02;3.30;;;;;;;23.71;47.09;102363.50;6269231;22;20046;-63
2022/06/11 11:16:59;;;;;;;23.98;4.93;;;;;;;23.90;46.36;102352.38;6241495;22;20007;-63
2022/06/11 11:19:32;;;;;;;19.08;3.97;;;;;;;24.03;45.80;102362.34;6242210;22;19999;-62
2022/06/11 11:22:18;;;;;;;17.70;4.43;;;;;;;24.47;44.76;102353.06;6269843;22;20004;-62
2022/06/11 11:24:50;;;;;;;15.65;3.72;;;;;;;24.91;43.82;102358.13;6268703;22;20004;-63
2022/06/11 11:27:19;;;;;;;18.17;3.92;;;;;;;25.01;42.00;102362.88;6241032;22;20004;-63
2022/06/11 11:30:14;;;;;;;17.70;3.60;;;;;;;24.98;42.02;102363.94;6242331;22;19999;-61
2022/06/11 11:32:40;;;;;;;22.95;4.22;;;;;;;25.10;40.82;102354.97;6216344;22;20003;-62
2022/06/11 11:35:22;;;;;;;20.45;3.97;;;;;;;24.61;42.78;102359.31;6267757;22;20007;-63
2022/06/11 11:38:13;;;;;;;16.52;3.78;;;;;;;23.99;45.38;102359.00;6268861;22;20000;-63